sensor_id;sensor_type;location;lat;lon;timestamp;P1;durP1;ratioP1;P2;durP2;ratioP2
15258;SDS011;34462;51.368;12.364;2023-12-22T00:00:42;10.43;;;3.07;;
15258;SDS011;34462;51.368;12.364;2023-12-22T00:03:13;9.07;;;2.93;;
15258;SDS011;34462;51.368;12.364;2023-12-22T00:05:44;8.73;;;2.20;;
15258;SDS011;34462;51.368;12.364;2023-12-22T00:08:12;11.63;;;3.23;;
15258;SDS011;34462;51.368;12.364;2023-12-22T00:10:41;9.13;;;2.90;;
15258;SDS011;34462;51.368;12.364;2023-12-22T00:13:09;10.47;;;2.60;;
15258;SDS011;34462;51.368;12.364;2023-12-22T00:15:38;17.80;;;4.43;;
15258;SDS011;34462;51.368;12.364;2023-12-22T00:18:06;13.90;;;3.43;;
15258;SDS011;34462;51.368;12.364;2023-12-22T00:20:35;10.57;;;3.67;;
15258;SDS011;34462;51.368;12.364;2023-12-22T00:23:05;12.93;;;3.63;;
15258;SDS011;34462;51.368;12.364;2023-12-22T00:25:33;12.43;;;3.27;;
15258;SDS011;34462;51.368;12.364;2023-12-22T00:28:02;13.80;;;3.50;;
15258;SDS011;34462;51.368;12.364;2023-12-22T00:30:31;14.57;;;3.47;;
15258;SDS011;34462;51.368;12.364;2023-12-22T00:32:59;18.60;;;3.30;;
15258;SDS011;34462;51.368;12.364;2023-12-22T00:35:28;15.43;;;3.47;;
15258;SDS011;34462;51.368;12.364;2023-12-22T00:37:57;12.77;;;3.23;;
15258;SDS011;34462;51.368;12.364;2023-12-22T00:40:27;9.43;;;2.40;;
15258;SDS011;34462;51.368;12.364;2023-12-22T00:42:55;9.03;;;3.03;;
15258;SDS011;34462;51.368;12.364;2023-12-22T00:45:24;12.67;;;2.90;;
15258;SDS011;34462;51.368;12.364;2023-12-22T00:47:52;11.47;;;3.30;;
15258;SDS011;34462;51.368;12.364;2023-12-22T00:50:21;11.50;;;3.00;;
15258;SDS011;34462;51.368;12.364;2023-12-22T00:52:50;14.70;;;2.97;;
15258;SDS011;34462;51.368;12.364;2023-12-22T00:55:18;14.30;;;3.40;;
15258;SDS011;34462;51.368;12.364;2023-12-22T00:57:48;12.77;;;3.43;;
15258;SDS011;34462;51.368;12.364;2023-12-22T01:00:17;11.37;;;3.20;;
15258;SDS011;34462;51.368;12.364;2023-12-22T01:02:45;10.93;;;2.80;;
15258;SDS011;34462;51.368;12.364;2023-12-22T01:05:14;13.70;;;3.63;;
15258;SDS011;34462;51.368;12.364;2023-12-22T01:07:43;10.40;;;3.23;;
15258;SDS011;34462;51.368;12.364;2023-12-22T01:10:12;10.10;;;2.50;;
15258;SDS011;34462;51.368;12.364;2023-12-22T01:12:40;13.53;;;3.10;;
15258;SDS011;34462;51.368;12.364;2023-12-22T01:15:10;10.90;;;2.57;;
15258;SDS011;34462;51.368;12.364;2023-12-22T01:17:38;15.00;;;3.20;;
15258;SDS011;34462;51.368;12.364;2023-12-22T01:20:08;10.83;;;3.00;;
15258;SDS011;34462;51.368;12.364;2023-12-22T01:22:37;7.43;;;2.53;;
15258;SDS011;34462;51.368;12.364;2023-12-22T01:25:06;12.07;;;3.27;;
15258;SDS011;34462;51.368;12.364;2023-12-22T01:27:34;12.73;;;3.20;;
15258;SDS011;34462;51.368;12.364;2023-12-22T01:30:03;17.20;;;3.13;;
15258;SDS011;34462;51.368;12.364;2023-12-22T01:32:34;11.83;;;3.67;;
15258;SDS011;34462;51.368;12.364;2023-12-22T01:35:03;13.30;;;3.07;;
15258;SDS011;34462;51.368;12.364;2023-12-22T01:37:36;16.97;;;3.43;;
15258;SDS011;34462;51.368;12.364;2023-12-22T01:40:05;15.17;;;3.30;;
15258;SDS011;34462;51.368;12.364;2023-12-22T01:42:34;11.80;;;3.50;;
15258;SDS011;34462;51.368;12.364;2023-12-22T01:45:03;14.70;;;2.93;;
15258;SDS011;34462;51.368;12.364;2023-12-22T01:47:34;14.30;;;3.37;;
15258;SDS011;34462;51.368;12.364;2023-12-22T01:50:04;15.17;;;4.40;;
15258;SDS011;34462;51.368;12.364;2023-12-22T01:52:33;13.13;;;3.93;;
15258;SDS011;34462;51.368;12.364;2023-12-22T01:55:02;13.10;;;3.47;;
15258;SDS011;34462;51.368;12.364;2023-12-22T01:57:31;8.60;;;3.10;;
15258;SDS011;34462;51.368;12.364;2023-12-22T02:00:02;12.37;;;3.40;;
15258;SDS011;34462;51.368;12.364;2023-12-22T02:02:32;12.50;;;3.57;;
15258;SDS011;34462;51.368;12.364;2023-12-22T02:05:02;16.27;;;3.50;;
15258;SDS011;34462;51.368;12.364;2023-12-22T02:07:31;11.83;;;3.20;;
15258;SDS011;34462;51.368;12.364;2023-12-22T02:10:00;15.90;;;3.90;;
15258;SDS011;34462;51.368;12.364;2023-12-22T02:12:29;15.17;;;3.53;;
15258;SDS011;34462;51.368;12.364;2023-12-22T02:14:58;12.63;;;3.30;;
15258;SDS011;34462;51.368;12.364;2023-12-22T02:17:29;14.87;;;3.50;;
15258;SDS011;34462;51.368;12.364;2023-12-22T02:20:06;11.53;;;3.03;;
15258;SDS011;34462;51.368;12.364;2023-12-22T02:22:38;13.97;;;3.53;;
15258;SDS011;34462;51.368;12.364;2023-12-22T02:25:07;12.87;;;3.67;;
15258;SDS011;34462;51.368;12.364;2023-12-22T02:27:38;13.07;;;3.63;;
15258;SDS011;34462;51.368;12.364;2023-12-22T02:30:13;11.87;;;3.10;;
15258;SDS011;34462;51.368;12.364;2023-12-22T02:32:48;13.57;;;2.93;;
15258;SDS011;34462;51.368;12.364;2023-12-22T02:35:19;13.33;;;2.83;;
15258;SDS011;34462;51.368;12.364;2023-12-22T02:37:51;12.90;;;3.00;;
15258;SDS011;34462;51.368;12.364;2023-12-22T02:40:21;8.40;;;3.20;;
15258;SDS011;34462;51.368;12.364;2023-12-22T02:42:52;15.13;;;3.17;;
15258;SDS011;34462;51.368;12.364;2023-12-22T02:45:21;14.57;;;3.20;;
15258;SDS011;34462;51.368;12.364;2023-12-22T02:47:49;12.83;;;3.03;;
15258;SDS011;34462;51.368;12.364;2023-12-22T02:50:18;11.80;;;3.50;;
15258;SDS011;34462;51.368;12.364;2023-12-22T02:52:47;10.73;;;3.20;;
15258;SDS011;34462;51.368;12.364;2023-12-22T02:55:17;10.50;;;2.80;;
15258;SDS011;34462;51.368;12.364;2023-12-22T02:57:46;16.93;;;3.97;;
15258;SDS011;34462;51.368;12.364;2023-12-22T03:00:15;11.13;;;2.80;;
15258;SDS011;34462;51.368;12.364;2023-12-22T03:02:43;14.23;;;2.70;;
15258;SDS011;34462;51.368;12.364;2023-12-22T03:05:12;11.90;;;2.77;;
15258;SDS011;34462;51.368;12.364;2023-12-22T03:07:41;15.37;;;2.77;;
15258;SDS011;34462;51.368;12.364;2023-12-22T03:10:09;16.97;;;3.00;;
15258;SDS011;34462;51.368;12.364;2023-12-22T03:12:39;11.33;;;2.70;;
15258;SDS011;34462;51.368;12.364;2023-12-22T03:15:09;10.13;;;2.90;;
15258;SDS011;34462;51.368;12.364;2023-12-22T03:17:37;9.67;;;2.60;;
15258;SDS011;34462;51.368;12.364;2023-12-22T03:20:06;7.83;;;2.83;;
15258;SDS011;34462;51.368;12.364;2023-12-22T03:29:33;13.87;;;2.80;;
15258;SDS011;34462;51.368;12.364;2023-12-22T03:32:02;10.07;;;2.30;;
15258;SDS011;34462;51.368;12.364;2023-12-22T03:34:31;10.47;;;2.77;;
15258;SDS011;34462;51.368;12.364;2023-12-22T03:36:59;8.23;;;2.50;;
15258;SDS011;34462;51.368;12.364;2023-12-22T03:39:28;10.63;;;2.30;;
15258;SDS011;34462;51.368;12.364;2023-12-22T03:41:56;11.90;;;2.73;;
15258;SDS011;34462;51.368;12.364;2023-12-22T03:44:25;10.40;;;2.60;;
15258;SDS011;34462;51.368;12.364;2023-12-22T03:46:55;13.20;;;2.40;;
15258;SDS011;34462;51.368;12.364;2023-12-22T03:49:24;11.97;;;2.97;;
15258;SDS011;34462;51.368;12.364;2023-12-22T03:51:52;6.70;;;1.80;;
15258;SDS011;34462;51.368;12.364;2023-12-22T03:54:21;8.30;;;1.90;;
15258;SDS011;34462;51.368;12.364;2023-12-22T03:56:49;7.87;;;2.00;;
15258;SDS011;34462;51.368;12.364;2023-12-22T03:59:18;6.53;;;1.73;;
15258;SDS011;34462;51.368;12.364;2023-12-22T04:01:50;7.63;;;2.20;;
15258;SDS011;34462;51.368;12.364;2023-12-22T04:04:21;6.40;;;1.83;;
15258;SDS011;34462;51.368;12.364;2023-12-22T04:06:50;5.20;;;1.93;;
15258;SDS011;34462;51.368;12.364;2023-12-22T04:09:18;5.17;;;1.70;;
15258;SDS011;34462;51.368;12.364;2023-12-22T04:11:47;7.33;;;1.50;;
15258;SDS011;34462;51.368;12.364;2023-12-22T04:14:15;7.53;;;1.93;;
15258;SDS011;34462;51.368;12.364;2023-12-22T04:16:44;7.00;;;1.50;;
15258;SDS011;34462;51.368;12.364;2023-12-22T04:19:13;7.90;;;1.70;;
15258;SDS011;34462;51.368;12.364;2023-12-22T04:21:43;4.10;;;1.70;;
15258;SDS011;34462;51.368;12.364;2023-12-22T04:24:12;4.43;;;1.10;;
15258;SDS011;34462;51.368;12.364;2023-12-22T04:26:41;2.30;;;0.90;;
15258;SDS011;34462;51.368;12.364;2023-12-22T04:29:09;3.50;;;0.90;;
15258;SDS011;34462;51.368;12.364;2023-12-22T04:31:38;2.90;;;1.30;;
15258;SDS011;34462;51.368;12.364;2023-12-22T04:34:06;5.17;;;1.00;;
15258;SDS011;34462;51.368;12.364;2023-12-22T04:36:35;2.03;;;1.00;;
15258;SDS011;34462;51.368;12.364;2023-12-22T04:39:05;3.63;;;1.00;;
15258;SDS011;34462;51.368;12.364;2023-12-22T04:41:34;4.03;;;1.53;;
15258;SDS011;34462;51.368;12.364;2023-12-22T04:44:02;4.50;;;1.17;;
15258;SDS011;34462;51.368;12.364;2023-12-22T04:46:31;4.60;;;1.17;;
15258;SDS011;34462;51.368;12.364;2023-12-22T04:48:59;4.27;;;1.20;;
15258;SDS011;34462;51.368;12.364;2023-12-22T04:51:28;1.90;;;0.93;;
15258;SDS011;34462;51.368;12.364;2023-12-22T04:53:57;4.80;;;1.10;;
15258;SDS011;34462;51.368;12.364;2023-12-22T04:56:27;4.33;;;1.10;;
15258;SDS011;34462;51.368;12.364;2023-12-22T04:58:55;3.40;;;1.10;;
15258;SDS011;34462;51.368;12.364;2023-12-22T05:01:24;4.00;;;1.20;;
15258;SDS011;34462;51.368;12.364;2023-12-22T05:03:52;3.80;;;1.10;;
15258;SDS011;34462;51.368;12.364;2023-12-22T05:06:21;6.57;;;1.63;;
15258;SDS011;34462;51.368;12.364;2023-12-22T05:08:49;4.10;;;1.37;;
15258;SDS011;34462;51.368;12.364;2023-12-22T05:11:18;3.93;;;1.60;;
15258;SDS011;34462;51.368;12.364;2023-12-22T05:13:48;4.43;;;1.30;;
15258;SDS011;34462;51.368;12.364;2023-12-22T05:16:16;5.43;;;1.50;;
15258;SDS011;34462;51.368;12.364;2023-12-22T05:18:45;7.20;;;1.77;;
15258;SDS011;34462;51.368;12.364;2023-12-22T05:21:14;5.90;;;1.63;;
15258;SDS011;34462;51.368;12.364;2023-12-22T05:23:42;5.70;;;1.70;;
15258;SDS011;34462;51.368;12.364;2023-12-22T05:26:15;4.00;;;1.20;;
15258;SDS011;34462;51.368;12.364;2023-12-22T05:28:45;5.80;;;1.83;;
15258;SDS011;34462;51.368;12.364;2023-12-22T05:31:15;4.07;;;1.33;;
15258;SDS011;34462;51.368;12.364;2023-12-22T05:33:45;7.20;;;1.70;;
15258;SDS011;34462;51.368;12.364;2023-12-22T05:36:14;8.50;;;2.13;;
15258;SDS011;34462;51.368;12.364;2023-12-22T05:38:42;8.00;;;1.87;;
15258;SDS011;34462;51.368;12.364;2023-12-22T05:41:12;6.37;;;1.70;;
15258;SDS011;34462;51.368;12.364;2023-12-22T05:43:40;10.03;;;1.70;;
15258;SDS011;34462;51.368;12.364;2023-12-22T05:46:10;6.03;;;1.83;;
15258;SDS011;34462;51.368;12.364;2023-12-22T05:48:39;4.90;;;1.93;;
15258;SDS011;34462;51.368;12.364;2023-12-22T05:51:07;6.73;;;1.97;;
15258;SDS011;34462;51.368;12.364;2023-12-22T05:53:40;6.73;;;1.80;;
15258;SDS011;34462;51.368;12.364;2023-12-22T05:56:16;6.17;;;2.17;;
15258;SDS011;34462;51.368;12.364;2023-12-22T05:58:45;5.20;;;1.73;;
15258;SDS011;34462;51.368;12.364;2023-12-22T06:01:16;6.63;;;1.70;;
15258;SDS011;34462;51.368;12.364;2023-12-22T06:03:45;6.30;;;2.00;;
15258;SDS011;34462;51.368;12.364;2023-12-22T06:06:14;9.30;;;1.97;;
15258;SDS011;34462;51.368;12.364;2023-12-22T06:08:43;6.07;;;1.50;;
15258;SDS011;34462;51.368;12.364;2023-12-22T06:11:11;7.10;;;2.43;;
15258;SDS011;34462;51.368;12.364;2023-12-22T06:13:40;5.83;;;1.70;;
15258;SDS011;34462;51.368;12.364;2023-12-22T06:16:12;7.73;;;1.80;;
15258;SDS011;34462;51.368;12.364;2023-12-22T06:18:42;6.57;;;2.10;;
15258;SDS011;34462;51.368;12.364;2023-12-22T06:21:11;7.77;;;2.07;;
15258;SDS011;34462;51.368;12.364;2023-12-22T06:23:41;4.73;;;1.50;;
15258;SDS011;34462;51.368;12.364;2023-12-22T06:26:10;6.53;;;1.60;;
15258;SDS011;34462;51.368;12.364;2023-12-22T06:28:39;6.93;;;1.70;;
15258;SDS011;34462;51.368;12.364;2023-12-22T06:31:08;5.00;;;1.30;;
15258;SDS011;34462;51.368;12.364;2023-12-22T06:33:46;8.77;;;1.60;;
15258;SDS011;34462;51.368;12.364;2023-12-22T06:36:18;5.23;;;1.73;;
15258;SDS011;34462;51.368;12.364;2023-12-22T06:38:47;4.07;;;1.40;;
15258;SDS011;34462;51.368;12.364;2023-12-22T06:41:20;7.07;;;2.37;;
15258;SDS011;34462;51.368;12.364;2023-12-22T06:43:54;7.13;;;1.73;;
15258;SDS011;34462;51.368;12.364;2023-12-22T06:46:23;4.07;;;1.80;;
15258;SDS011;34462;51.368;12.364;2023-12-22T06:48:55;7.30;;;2.00;;
15258;SDS011;34462;51.368;12.364;2023-12-22T06:51:24;7.30;;;1.50;;
15258;SDS011;34462;51.368;12.364;2023-12-22T06:53:54;6.13;;;1.57;;
15258;SDS011;34462;51.368;12.364;2023-12-22T06:56:24;7.20;;;1.90;;
15258;SDS011;34462;51.368;12.364;2023-12-22T06:58:54;5.67;;;1.90;;
15258;SDS011;34462;51.368;12.364;2023-12-22T07:01:24;6.33;;;1.43;;
15258;SDS011;34462;51.368;12.364;2023-12-22T07:03:57;6.27;;;1.80;;
15258;SDS011;34462;51.368;12.364;2023-12-22T07:06:27;8.43;;;2.10;;
15258;SDS011;34462;51.368;12.364;2023-12-22T07:11:59;7.73;;;1.73;;
15258;SDS011;34462;51.368;12.364;2023-12-22T07:14:30;7.13;;;1.93;;
15258;SDS011;34462;51.368;12.364;2023-12-22T07:17:01;5.77;;;2.13;;
15258;SDS011;34462;51.368;12.364;2023-12-22T07:19:31;6.00;;;1.70;;
15258;SDS011;34462;51.368;12.364;2023-12-22T07:21:59;9.33;;;1.67;;
15258;SDS011;34462;51.368;12.364;2023-12-22T07:24:29;8.77;;;2.00;;
15258;SDS011;34462;51.368;12.364;2023-12-22T07:26:57;6.87;;;1.70;;
15258;SDS011;34462;51.368;12.364;2023-12-22T07:29:26;10.60;;;2.57;;
15258;SDS011;34462;51.368;12.364;2023-12-22T07:31:54;7.87;;;2.30;;
15258;SDS011;34462;51.368;12.364;2023-12-22T07:34:23;8.90;;;2.00;;
15258;SDS011;34462;51.368;12.364;2023-12-22T07:36:55;7.13;;;2.17;;
15258;SDS011;34462;51.368;12.364;2023-12-22T07:39:32;2.87;;;1.40;;
15258;SDS011;34462;51.368;12.364;2023-12-22T07:42:03;6.10;;;1.40;;
15258;SDS011;34462;51.368;12.364;2023-12-22T07:44:33;6.63;;;1.90;;
15258;SDS011;34462;51.368;12.364;2023-12-22T07:47:01;5.00;;;1.70;;
15258;SDS011;34462;51.368;12.364;2023-12-22T07:49:31;5.73;;;1.37;;
15258;SDS011;34462;51.368;12.364;2023-12-22T07:52:01;5.93;;;1.47;;
15258;SDS011;34462;51.368;12.364;2023-12-22T07:54:29;8.07;;;1.70;;
15258;SDS011;34462;51.368;12.364;2023-12-22T07:56:58;7.93;;;1.93;;
15258;SDS011;34462;51.368;12.364;2023-12-22T07:59:27;4.87;;;1.87;;
15258;SDS011;34462;51.368;12.364;2023-12-22T08:01:57;6.90;;;1.57;;
15258;SDS011;34462;51.368;12.364;2023-12-22T08:04:27;6.50;;;2.20;;
15258;SDS011;34462;51.368;12.364;2023-12-22T08:06:55;5.47;;;2.17;;
15258;SDS011;34462;51.368;12.364;2023-12-22T08:09:25;6.77;;;1.77;;
15258;SDS011;34462;51.368;12.364;2023-12-22T08:11:54;5.37;;;2.00;;
15258;SDS011;34462;51.368;12.364;2023-12-22T08:14:23;6.17;;;1.50;;
15258;SDS011;34462;51.368;12.364;2023-12-22T08:16:51;4.97;;;1.63;;
15258;SDS011;34462;51.368;12.364;2023-12-22T08:19:20;3.80;;;1.27;;
15258;SDS011;34462;51.368;12.364;2023-12-22T08:21:52;2.03;;;1.00;;
15258;SDS011;34462;51.368;12.364;2023-12-22T08:24:21;4.07;;;1.50;;
15258;SDS011;34462;51.368;12.364;2023-12-22T08:26:51;5.40;;;1.40;;
15258;SDS011;34462;51.368;12.364;2023-12-22T08:29:20;2.10;;;0.70;;
15258;SDS011;34462;51.368;12.364;2023-12-22T08:31:48;4.50;;;1.30;;
15258;SDS011;34462;51.368;12.364;2023-12-22T08:34:17;2.40;;;0.97;;
15258;SDS011;34462;51.368;12.364;2023-12-22T08:36:46;3.00;;;1.40;;
15258;SDS011;34462;51.368;12.364;2023-12-22T08:39:14;1.53;;;0.80;;
15258;SDS011;34462;51.368;12.364;2023-12-22T08:41:43;3.13;;;1.10;;
15258;SDS011;34462;51.368;12.364;2023-12-22T08:44:13;7.30;;;1.17;;
15258;SDS011;34462;51.368;12.364;2023-12-22T08:46:42;4.20;;;1.10;;
15258;SDS011;34462;51.368;12.364;2023-12-22T08:49:11;3.83;;;1.00;;
15258;SDS011;34462;51.368;12.364;2023-12-22T08:51:40;4.40;;;1.10;;
15258;SDS011;34462;51.368;12.364;2023-12-22T08:54:09;3.37;;;1.07;;
15258;SDS011;34462;51.368;12.364;2023-12-22T08:56:37;4.13;;;1.10;;
15258;SDS011;34462;51.368;12.364;2023-12-22T08:59:06;7.70;;;1.37;;
15258;SDS011;34462;51.368;12.364;2023-12-22T09:01:36;4.27;;;1.00;;
15258;SDS011;34462;51.368;12.364;2023-12-22T09:04:07;4.90;;;1.20;;
15258;SDS011;34462;51.368;12.364;2023-12-22T09:06:38;7.50;;;1.10;;
15258;SDS011;34462;51.368;12.364;2023-12-22T09:09:07;4.13;;;1.10;;
15258;SDS011;34462;51.368;12.364;2023-12-22T09:11:35;3.70;;;0.90;;
15258;SDS011;34462;51.368;12.364;2023-12-22T09:14:05;4.00;;;0.80;;
15258;SDS011;34462;51.368;12.364;2023-12-22T09:16:37;3.37;;;1.00;;
15258;SDS011;34462;51.368;12.364;2023-12-22T09:19:06;3.73;;;0.90;;
15258;SDS011;34462;51.368;12.364;2023-12-22T09:21:35;3.20;;;0.90;;
15258;SDS011;34462;51.368;12.364;2023-12-22T09:24:03;3.17;;;0.70;;
15258;SDS011;34462;51.368;12.364;2023-12-22T09:26:32;1.87;;;0.90;;
15258;SDS011;34462;51.368;12.364;2023-12-22T09:29:01;3.10;;;0.67;;
15258;SDS011;34462;51.368;12.364;2023-12-22T09:31:29;2.80;;;1.13;;
15258;SDS011;34462;51.368;12.364;2023-12-22T09:34:00;3.63;;;0.90;;
15258;SDS011;34462;51.368;12.364;2023-12-22T09:36:30;3.33;;;0.80;;
15258;SDS011;34462;51.368;12.364;2023-12-22T09:38:58;5.37;;;1.50;;
15258;SDS011;34462;51.368;12.364;2023-12-22T09:41:27;2.57;;;0.70;;
15258;SDS011;34462;51.368;12.364;2023-12-22T09:43:56;3.70;;;0.87;;
15258;SDS011;34462;51.368;12.364;2023-12-22T09:46:25;1.80;;;0.80;;
15258;SDS011;34462;51.368;12.364;2023-12-22T09:48:54;2.30;;;1.03;;
15258;SDS011;34462;51.368;12.364;2023-12-22T09:51:24;3.03;;;0.90;;
15258;SDS011;34462;51.368;12.364;2023-12-22T09:53:54;3.17;;;1.00;;
15258;SDS011;34462;51.368;12.364;2023-12-22T09:56:29;2.30;;;0.80;;
15258;SDS011;34462;51.368;12.364;2023-12-22T09:58:58;2.40;;;0.67;;
15258;SDS011;34462;51.368;12.364;2023-12-22T10:01:27;1.73;;;0.67;;
15258;SDS011;34462;51.368;12.364;2023-12-22T10:03:57;1.30;;;0.60;;
15258;SDS011;34462;51.368;12.364;2023-12-22T10:06:27;1.13;;;0.77;;
15258;SDS011;34462;51.368;12.364;2023-12-22T10:08:56;0.70;;;0.47;;
15258;SDS011;34462;51.368;12.364;2023-12-22T10:11:25;1.53;;;0.40;;
15258;SDS011;34462;51.368;12.364;2023-12-22T10:13:56;0.97;;;0.50;;
15258;SDS011;34462;51.368;12.364;2023-12-22T10:16:26;0.73;;;0.60;;
15258;SDS011;34462;51.368;12.364;2023-12-22T10:18:55;1.87;;;0.60;;
15258;SDS011;34462;51.368;12.364;2023-12-22T10:21:24;2.10;;;0.70;;
15258;SDS011;34462;51.368;12.364;2023-12-22T10:23:54;2.67;;;1.00;;
15258;SDS011;34462;51.368;12.364;2023-12-22T10:26:22;2.13;;;0.60;;
15258;SDS011;34462;51.368;12.364;2023-12-22T10:28:51;2.20;;;0.50;;
15258;SDS011;34462;51.368;12.364;2023-12-22T10:31:20;2.80;;;0.70;;
15258;SDS011;34462;51.368;12.364;2023-12-22T10:33:48;4.37;;;1.10;;
15258;SDS011;34462;51.368;12.364;2023-12-22T10:36:17;2.67;;;1.10;;
15258;SDS011;34462;51.368;12.364;2023-12-22T10:38:45;3.00;;;1.10;;
15258;SDS011;34462;51.368;12.364;2023-12-22T10:41:15;4.70;;;1.33;;
15258;SDS011;34462;51.368;12.364;2023-12-22T10:43:44;3.40;;;1.10;;
15258;SDS011;34462;51.368;12.364;2023-12-22T10:46:13;8.60;;;1.30;;
15258;SDS011;34462;51.368;12.364;2023-12-22T10:48:42;4.13;;;1.17;;
15258;SDS011;34462;51.368;12.364;2023-12-22T10:51:12;3.10;;;0.93;;
15258;SDS011;34462;51.368;12.364;2023-12-22T10:53:41;5.30;;;1.50;;
15258;SDS011;34462;51.368;12.364;2023-12-22T10:56:10;8.67;;;1.97;;
15258;SDS011;34462;51.368;12.364;2023-12-22T10:58:40;5.47;;;2.03;;
15258;SDS011;34462;51.368;12.364;2023-12-22T11:01:12;5.33;;;1.60;;
15258;SDS011;34462;51.368;12.364;2023-12-22T11:03:43;7.80;;;1.80;;
15258;SDS011;34462;51.368;12.364;2023-12-22T11:06:15;4.53;;;1.93;;
15258;SDS011;34462;51.368;12.364;2023-12-22T11:08:45;5.37;;;1.40;;
15258;SDS011;34462;51.368;12.364;2023-12-22T11:11:20;5.23;;;1.30;;
15258;SDS011;34462;51.368;12.364;2023-12-22T11:13:57;4.63;;;1.70;;
15258;SDS011;34462;51.368;12.364;2023-12-22T11:16:27;3.83;;;1.63;;
15258;SDS011;34462;51.368;12.364;2023-12-22T11:18:57;5.67;;;1.33;;
15258;SDS011;34462;51.368;12.364;2023-12-22T11:21:27;7.17;;;1.87;;
15258;SDS011;34462;51.368;12.364;2023-12-22T11:23:56;7.20;;;2.10;;
15258;SDS011;34462;51.368;12.364;2023-12-22T11:26:25;8.47;;;2.03;;
15258;SDS011;34462;51.368;12.364;2023-12-22T11:28:53;5.27;;;1.53;;
15258;SDS011;34462;51.368;12.364;2023-12-22T11:31:25;8.80;;;1.90;;
15258;SDS011;34462;51.368;12.364;2023-12-22T11:33:55;7.27;;;1.57;;
15258;SDS011;34462;51.368;12.364;2023-12-22T11:36:37;7.30;;;2.10;;
15258;SDS011;34462;51.368;12.364;2023-12-22T11:39:07;5.57;;;1.90;;
15258;SDS011;34462;51.368;12.364;2023-12-22T11:41:36;8.27;;;1.80;;
15258;SDS011;34462;51.368;12.364;2023-12-22T11:44:08;7.97;;;1.83;;
15258;SDS011;34462;51.368;12.364;2023-12-22T11:46:37;4.30;;;1.53;;
15258;SDS011;34462;51.368;12.364;2023-12-22T11:49:06;7.23;;;2.33;;
15258;SDS011;34462;51.368;12.364;2023-12-22T11:51:35;7.57;;;1.87;;
15258;SDS011;34462;51.368;12.364;2023-12-22T11:54:17;8.03;;;2.20;;
15258;SDS011;34462;51.368;12.364;2023-12-22T11:57:28;7.80;;;1.87;;
15258;SDS011;34462;51.368;12.364;2023-12-22T12:00:04;8.63;;;1.97;;
15258;SDS011;34462;51.368;12.364;2023-12-22T12:02:35;8.20;;;1.80;;
15258;SDS011;34462;51.368;12.364;2023-12-22T12:05:06;6.40;;;1.70;;
15258;SDS011;34462;51.368;12.364;2023-12-22T12:07:36;8.50;;;2.37;;
15258;SDS011;34462;51.368;12.364;2023-12-22T12:10:06;5.80;;;2.00;;
15258;SDS011;34462;51.368;12.364;2023-12-22T12:12:35;9.23;;;1.93;;
15258;SDS011;34462;51.368;12.364;2023-12-22T12:15:09;5.90;;;1.80;;
15258;SDS011;34462;51.368;12.364;2023-12-22T12:17:41;6.10;;;1.57;;
15258;SDS011;34462;51.368;12.364;2023-12-22T12:20:10;10.50;;;2.17;;
15258;SDS011;34462;51.368;12.364;2023-12-22T12:22:39;3.70;;;1.60;;
15258;SDS011;34462;51.368;12.364;2023-12-22T12:25:11;6.73;;;1.40;;
15258;SDS011;34462;51.368;12.364;2023-12-22T12:28:00;6.47;;;1.87;;
15258;SDS011;34462;51.368;12.364;2023-12-22T12:30:31;7.23;;;1.50;;
15258;SDS011;34462;51.368;12.364;2023-12-22T12:33:05;3.50;;;1.20;;
15258;SDS011;34462;51.368;12.364;2023-12-22T12:35:35;2.07;;;1.03;;
15258;SDS011;34462;51.368;12.364;2023-12-22T12:38:12;1.50;;;1.07;;
15258;SDS011;34462;51.368;12.364;2023-12-22T12:40:44;1.17;;;1.00;;
15258;SDS011;34462;51.368;12.364;2023-12-22T12:43:16;1.73;;;1.17;;
15258;SDS011;34462;51.368;12.364;2023-12-22T12:45:46;1.40;;;0.90;;
15258;SDS011;34462;51.368;12.364;2023-12-22T12:48:15;1.27;;;0.90;;
15258;SDS011;34462;51.368;12.364;2023-12-22T12:50:45;1.60;;;0.80;;
15258;SDS011;34462;51.368;12.364;2023-12-22T12:53:14;2.90;;;1.57;;
15258;SDS011;34462;51.368;12.364;2023-12-22T12:55:43;2.70;;;0.73;;
15258;SDS011;34462;51.368;12.364;2023-12-22T12:58:12;1.07;;;0.73;;
15258;SDS011;34462;51.368;12.364;2023-12-22T13:00:40;0.70;;;0.70;;
15258;SDS011;34462;51.368;12.364;2023-12-22T13:03:10;1.63;;;0.87;;
15258;SDS011;34462;51.368;12.364;2023-12-22T13:05:39;2.03;;;1.37;;
15258;SDS011;34462;51.368;12.364;2023-12-22T13:08:08;4.00;;;1.73;;
15258;SDS011;34462;51.368;12.364;2023-12-22T13:10:38;3.10;;;2.07;;
15258;SDS011;34462;51.368;12.364;2023-12-22T13:13:08;2.80;;;2.27;;
15258;SDS011;34462;51.368;12.364;2023-12-22T13:15:39;5.77;;;4.20;;
15258;SDS011;34462;51.368;12.364;2023-12-22T13:18:08;7.90;;;5.10;;
15258;SDS011;34462;51.368;12.364;2023-12-22T13:20:39;4.27;;;1.83;;
15258;SDS011;34462;51.368;12.364;2023-12-22T13:23:07;6.13;;;1.70;;
15258;SDS011;34462;51.368;12.364;2023-12-22T13:25:39;3.30;;;1.13;;
15258;SDS011;34462;51.368;12.364;2023-12-22T13:28:07;3.63;;;1.40;;
15258;SDS011;34462;51.368;12.364;2023-12-22T13:30:36;3.50;;;1.10;;
15258;SDS011;34462;51.368;12.364;2023-12-22T13:33:08;3.37;;;1.20;;
15258;SDS011;34462;51.368;12.364;2023-12-22T13:35:38;3.80;;;1.40;;
15258;SDS011;34462;51.368;12.364;2023-12-22T13:38:08;3.00;;;1.40;;
15258;SDS011;34462;51.368;12.364;2023-12-22T13:40:38;2.80;;;1.77;;
15258;SDS011;34462;51.368;12.364;2023-12-22T13:43:11;3.07;;;1.70;;
15258;SDS011;34462;51.368;12.364;2023-12-22T13:45:40;4.73;;;1.60;;
15258;SDS011;34462;51.368;12.364;2023-12-22T13:48:10;3.40;;;1.70;;
15258;SDS011;34462;51.368;12.364;2023-12-22T13:50:39;7.17;;;1.77;;
15258;SDS011;34462;51.368;12.364;2023-12-22T13:53:08;4.87;;;2.27;;
15258;SDS011;34462;51.368;12.364;2023-12-22T13:55:37;6.13;;;2.10;;
15258;SDS011;34462;51.368;12.364;2023-12-22T13:58:07;4.67;;;2.10;;
15258;SDS011;34462;51.368;12.364;2023-12-22T14:00:38;5.63;;;2.27;;
15258;SDS011;34462;51.368;12.364;2023-12-22T14:03:10;6.20;;;2.30;;
15258;SDS011;34462;51.368;12.364;2023-12-22T14:05:39;6.97;;;2.50;;
15258;SDS011;34462;51.368;12.364;2023-12-22T14:08:08;6.47;;;2.60;;
15258;SDS011;34462;51.368;12.364;2023-12-22T14:10:37;5.70;;;2.00;;
15258;SDS011;34462;51.368;12.364;2023-12-22T14:13:12;7.40;;;1.97;;
15258;SDS011;34462;51.368;12.364;2023-12-22T14:15:41;4.77;;;2.27;;
15258;SDS011;34462;51.368;12.364;2023-12-22T14:18:12;10.17;;;4.17;;
15258;SDS011;34462;51.368;12.364;2023-12-22T14:20:41;5.73;;;2.80;;
15258;SDS011;34462;51.368;12.364;2023-12-22T14:23:10;10.43;;;3.23;;
15258;SDS011;34462;51.368;12.364;2023-12-22T14:25:43;4.40;;;2.23;;
15258;SDS011;34462;51.368;12.364;2023-12-22T14:28:12;7.27;;;2.80;;
15258;SDS011;34462;51.368;12.364;2023-12-22T14:30:40;7.60;;;2.57;;
15258;SDS011;34462;51.368;12.364;2023-12-22T14:33:10;2.97;;;1.60;;
15258;SDS011;34462;51.368;12.364;2023-12-22T14:35:41;7.10;;;2.13;;
15258;SDS011;34462;51.368;12.364;2023-12-22T14:38:09;6.20;;;2.03;;
15258;SDS011;34462;51.368;12.364;2023-12-22T14:40:38;8.97;;;2.73;;
15258;SDS011;34462;51.368;12.364;2023-12-22T14:43:07;8.23;;;1.87;;
15258;SDS011;34462;51.368;12.364;2023-12-22T14:45:35;4.87;;;1.70;;
15258;SDS011;34462;51.368;12.364;2023-12-22T14:48:04;8.23;;;1.90;;
15258;SDS011;34462;51.368;12.364;2023-12-22T14:50:35;7.80;;;1.80;;
15258;SDS011;34462;51.368;12.364;2023-12-22T14:53:03;8.17;;;1.70;;
15258;SDS011;34462;51.368;12.364;2023-12-22T14:55:34;9.93;;;2.20;;